Racecast

Jasper Laca

Davis (CA) · 12 · SFLCA D1SJS D1YOLO · Compare head to head

Athlete rating 125.2 2014 TF season
Best race 131.8 XC
Races 86
Seasons 5 2010 — 2014

RankedNation #5480·CA #758·CA D1 #411·SJS #70·SJS D1 #50·SFL #21·Team #22 ?

Speed rating — all races

Cross Country

XC speed rating

2013 XC 127.9

Davis (CA) · Grade 12

Date Meet Event Result Place Rating Difficulty PR/SR Flags
2013-11-30 Woodward Park 5000m 15:51 32nd · 2nd on team 131.8 +0.013 ★PR ★CR ★R SR CSR RSR
2013-11-02 Willow Hills Reservoir Course 5000m 16:44 2nd · 2nd on team 128.3 +0.045 ★CR CSR
2013-10-26 Mt. San Antonio College 4715m 15:51 25th · 1st on team 131.0 +0.077 ★PR ★CR R SR CSR RSR
2013-10-12 Woodward Park 5000m 16:03 48th · 2nd on team 129.7 +0.013 PR CR R SR CSR RSR
2013-10-01 Granite Park 5000m 16:40 2nd · 1st on team 123.8 +0.002 ★CR CSR
2013-09-28 Stanford University Golf Course 5000m 16:35 11th · 2nd on team 124.9 +0.002 ★CR SR CSR
2013-09-07 Lagoon Valley Park 4828m 16:45 7th · 1st on team 126.0 +0.056 ★PR ★CR SR CSR RSR

2012 XC 122.0

Davis (CA) · Grade 11

Date Meet Event Result Place Rating Difficulty PR/SR Flags
2012-11-24 Woodward Park 5000m 16:31 119th · 5th on team 126.8 +0.013
2012-11-03 Calaveras County Fairgrounds 4828m 18:06 40th · 1st on team 116.9 +0.065 PR ★CR SR CSR
2012-10-06 Woodward Park 5000m 16:25 38th · 3rd on team 127.3 +0.013 PR CR R SR CSR RSR
2012-10-04 Granite Park 5000m 17:47.7 9th · 3rd on team 115.9 +0.002
2012-09-29 Stanford University Golf Course 5000m 16:50 31st · 5th on team 122.4 +0.002 PR CR SR CSR
2012-09-08 Granite Park 5000m 16:51 32nd · 3rd on team 122.4 +0.002 PR CR R SR CSR RSR

2011 XC 115.5

Davis (CA) · Grade 10

Date Meet Event Result Place Rating Difficulty PR/SR Flags
2011-11-11 Willow Hills Reservoir Course 3400m 11:56 4th · 2nd on team 118.2 +0.043 ★PR ★CR R SR CSR RSR
2011-11-05 Calaveras County Fairgrounds 3218m 11:52 3rd · 2nd on team 115.0 +0.084 ★CR CSR
2011-10-29 Willow Hills Reservoir Course 3400m 12:07 2nd · 2nd on team 116.5 +0.043 PR CR SR CSR
2011-10-22 Mt. San Antonio College 4715m 18:47 37th · 2nd on team 111.9 +0.077 PR CR SR CSR
2011-10-15 Willow Hills Reservoir Course 3400m 12:11.3 3rd · 1st on team 116.7 +0.043 PR CR SR CSR
2011-10-08 Woodward Park 5000m 17:52 35th · 3rd on team 117.2 +0.013 PR CR R SR CSR RSR
2011-10-01 Muller Vineyards 3218m 11:14 3rd · 1st on team 115.5 +0.024 ★PR ★CR R SR CSR RSR
2011-09-03 Lagoon Valley Park 3218m 12:33.3 13th · 2nd on team 113.1 +0.121 PR ★CR SR CSR RSR

2010 XC 102.2

Davis (CA) · Grade 9

Date Meet Event Result Place Rating Difficulty PR/SR Flags
2010-11-13 Willow Hills Reservoir Course 3200m 13:24 51st · 3rd on team 102.8 +0.088 ★PR ★CR SR CSR
2010-11-06 Calaveras County Fairgrounds 3218m 12:54 33rd · 3rd on team 107.9 +0.084 PR CR R SR CSR RSR
2010-10-16 Willow Hills Reservoir Course 3400m 13:43.8 58th · 3rd on team 103.3 +0.043 PR CR R SR CSR RSR
2010-09-18 Willow Hills Reservoir Course 3300m 14:34 101st · 19th on team 94.7 +0.056 ★PR ★CR R SR CSR RSR
2010-09-04 Lagoon Valley Park 3218m 15:10.2 65th · 7th on team +0.121 PR CR SR CSR

Track & Field

TF speed rating

2014 TF 122.4

Davis (CA) · Grade 12

Date Meet Event Result Place Rating Difficulty PR/SR Flags
2014-04-12 Halden Invitational 3200m 9:36.31 2nd · 1st on team 129.4 -0.026 SR RSR
2014-04-05 Stanford Invitational Day 2 1mile 4:31.01 28th · 3rd on team 125.3 -0.047 ★PR SR RSR
2014-03-19 DVC Center Meet #1 1600m 4:38.77 5th · 4th on team 122.4 -0.033
2014-03-19 DVC Center Meet #1 3200m 9:58.92 2nd · 2nd on team 123.3 -0.033 SR
2014-03-08 10th Annual CSUS Track Classic 3000m 9:12.15 3rd · 1st on team 125.0 -0.032 ★PR SR RSR
2014-03-05 The Spade! 1600m 4:36.65 3rd · 2nd on team 124.1 -0.026 SR RSR
2014-03-05 The Spade! 3200m 10:45.02 4th · 4th on team 115.3 -0.026 SR
2014-02-26 Time Trials 800m 2:05.21 3rd · 3rd on team 121.7 -0.026 ★PR SR RSR
2014-02-26 Time Trials 1600m 4:58.6 5th · 5th on team 115.4 -0.026 SR

2013 TF 121.3

Davis (CA) · Grade 11

Date Meet Event Result Place Rating Difficulty PR/SR Flags
2013-05-24 CIF Sac-Joaquin Section Masters Trials and Finals 2013 3200m 9:30.7 8th · 1st on team 129.3 -0.033 ★PR R SR RSR
2013-05-17 Sac Joaquin Section D1 Finals 1600m 4:24.73 7th · 2nd on team 128.8 -0.033 ★PR R SR RSR
2013-05-17 Sac Joaquin Section D1 Finals 3200m 9:38.28 7th · 1st on team 127.7 -0.033
2013-05-08 DVC Championships 3200m 9:38.18 1st · 1st on team 126.3 -0.033 PR SR RSR
2013-05-08 DVC Championships 1600m 4:25.96 4th · 3rd on team 127.3 -0.033 PR SR RSR
2013-04-24 DVC Meet: Elk Grove vs. Davis 3200m 10:08.43 1st · 1st on team 122.4 -0.026
2013-04-20 Woody Wilson Invitational 1600m 4:36.61 22nd · 3rd on team 123.1 -0.034
2013-04-17 DVC Meet: Grant, Monterey Trail, Davis 3200m 10:05.64 1st · 1st on team 123.0 -0.026 PR SR
2013-04-17 DVC Meet: Grant, Monterey Trail, Davis 1600m 4:43.69 2nd · 2nd on team 121.5 -0.026
2013-04-13 Halden Invitational 1600m 4:33.42 8th · 3rd on team 125.5 -0.026 PR SR RSR
2013-04-10 DVC Meet: Laguna Creek vs. Davis 800m 2:07.63 4th · 3rd on team 119.2 -0.026
2013-04-10 DVC Meet: Laguna Creek vs. Davis 3200m 11:56.72 9th · 9th on team 104.0 -0.026
2013-03-16 Depth Charge 1600m 4:39.68 3rd · 2nd on team 123.2 -0.020 PR SR RSR
2013-03-06 St. Francis/Jesuit vs. Davis Sr. 3200m 11:00.68 11th · 7th on team 112.7 -0.026 PR SR
2013-03-06 St. Francis/Jesuit vs. Davis Sr. 800m 2:06.99 4th · 1st on team 120.0 -0.026 PR SR RSR
2013-03-02 9th Annual CSUS Track Classic 1500m 4:26.83 29th · 3rd on team 118.3 -0.032 ★PR SR RSR
2013-02-20 Blue vs. White Intrasquad 800m 2:13.11 5th · 5th on team 114.2 -0.026 SR RSR
2013-02-20 Blue vs. White Intrasquad 1600m 4:54.27 4th · 4th on team 116.6 -0.026 SR RSR

2012 TF 112.2

Davis (CA) · Grade 10

Date Meet Event Result Place Rating Difficulty PR/SR Flags
2012-05-11 DVC Trials/Finals 800m 2:15.68 8th · 4th on team 111.7 -0.026
2012-05-11 DVC Trials/Finals 1600m 4:47.75 2nd · 1st on team 118.9 -0.026 PR R SR RSR
2012-05-11 DVC Trials/Finals 800m 2:10.84 4th · 1st on team 115.8 -0.026 PR SR
2012-05-02 DVC Meet: Davis vs. Laguna Creek 1600m 4:53.93 1st · 1st on team 116.3 -0.026 PR SR RSR
2012-04-21 Halden Invitational 800m 2:12.92 8th · 2nd on team 114.1 -0.026 PR SR
2012-04-21 Halden Invitational 1600m 4:54.57 4th · 1st on team 116.3 -0.026 PR SR RSR
2012-03-28 DVC Meet: Monterey Trail, Franklin, Davis 800m 2:21.12 2nd · 2nd on team 107.6 -0.026
2012-03-28 DVC Meet: Monterey Trail, Franklin, Davis 1600m 4:59.03 1st · 1st on team 114.3 -0.026 SR RSR
2012-03-21 DVC Meet: Davis vs. Elk Grove 1600m 4:59.23 2nd · 1st on team 113.0 -0.033 SR
2012-03-21 DVC Meet: Davis vs. Elk Grove 800m 2:15.99 3rd · 2nd on team 110.3 -0.033 PR SR
2012-03-16 Battle for the Spade 1600m 5:04.47 9th · 6th on team 112.6 -0.026
2012-03-07 Jesuit, St. Francis, Davis Dual 1600m 5:04.32 1st · 1st on team 113.0 -0.026
2012-03-07 Jesuit, St. Francis, Davis Dual 800m 2:20.65 2nd · 2nd on team 108.3 -0.026 PR SR
2012-02-29 Blue/White Intrasquad 800m 2:26.12 8th · 8th on team 104.2 -0.026
2012-02-29 Blue/White Intrasquad 1600m 5:01.41 8th · 8th on team 113.9 -0.026 RSR
2012-02-24 Blue/White Intrasquad 800m 2:26.12 8th · 8th on team 103.5 -0.026 SR RSR
2012-02-24 Blue/White Intrasquad 1600m 5:01.41 8th · 8th on team 113.4 -0.026 SR RSR

2011 TF 106.7

Davis (CA) · Grade 9

Date Meet Event Result Place Rating Difficulty PR/SR Flags
2011-05-11 Delta Valley League Trials 1600m 4:58.85 6th · 3rd on team 114.4 -0.021 PR R SR RSR
2011-05-11 Delta Valley League Trials 3200m 11:30.61 8th · 4th on team 107.2 -0.021 PR SR
2011-05-04 Laguna Creek vs. Davis 800m 2:22.5 1st · 1st on team 106.6 -0.026 PR SR
2011-05-04 Laguna Creek vs. Davis 1600m 5:06.77 3rd · 3rd on team 111.6 -0.026
2011-04-27 Davis vs. Grant 800m 2:26.79 2nd · 2nd on team 104.2 -0.014
2011-04-27 Davis vs. Grant 1600m 5:03.62 2nd · 2nd on team 113.4 -0.014 PR R SR RSR
2011-04-23 Halden Invitational 800m 2:24.56 16th · 1st on team 104.9 -0.026 PR SR
2011-04-23 Halden Invitational 1600m 5:04.93 18th · 3rd on team 111.6 -0.026 PR R SR RSR
2011-04-13 Elk Grove vs Davis 800m 2:26.62 5th · 2nd on team 103.5 -0.026
2011-04-13 Elk Grove vs Davis 1600m 5:06.62 5th · 2nd on team 111.3 -0.026 PR R SR RSR
2011-03-23 MTHS, Franklin, & Davis 1600m 5:17.9 6th · 1st on team 108.2 -0.021 PR R SR RSR
2011-03-23 MTHS, Franklin, & Davis 800m 2:24.64 4th · 2nd on team 105.7 -0.021 PR SR
2011-03-09 Davis v Jesuit, St. Francis 800m 2:28.41 7th · 2nd on team 101.7 -0.026 PR SR RSR
2011-03-09 Davis v Jesuit, St. Francis 1600m 5:28.54 8th · 5th on team 103.4 -0.026 PR SR RSR
2011-03-02 Blue vs White intrasquad 800m 2:35.46 10th · 10th on team 97.8 -0.026 PR SR RSR
2011-03-02 Blue vs White intrasquad 1600m 5:37.45 12th · 12th on team 101.4 -0.026 PR SR RSR